Time;durP1;ratioP1;P1;durP2;ratioP2;P2;SDS_P1;SDS_P2;PMS_P1;PMS_P2;Temp;Humidity;BMP_temperature;BMP_pressure;BME280_temperature;BME280_humidity;BME280_pressure;Samples;Min_cycle;Max_cycle;Signal;HPM_P1;HPM_P2
2024/01/28 00:00:53;;;;;;;7.38;5.38;;;3.80;70.40;;;;;;5068174;28;20052;-53
2024/01/28 00:03:20;;;;;;;22.10;6.97;;;3.80;70.40;;;;;;5065474;28;20533;-49
2024/01/28 00:05:49;;;;;;;10.18;4.68;;;3.80;70.40;;;;;;5071816;28;20499;-51
2024/01/28 00:08:23;;;;;;;8.93;5.63;;;3.80;70.40;;;;;;5072513;28;20165;-51
2024/01/28 00:10:53;;;;;;;10.30;6.10;;;3.80;70.40;;;;;;5069081;28;20511;-48
2024/01/28 00:13:23;;;;;;;11.82;6.57;;;3.80;70.30;;;;;;5071360;28;20044;-49
2024/01/28 00:15:54;;;;;;;13.38;6.05;;;3.80;70.30;;;;;;5068977;28;20072;-49
2024/01/28 00:18:24;;;;;;;10.35;5.57;;;3.80;70.30;;;;;;5068868;28;20060;-53
2024/01/28 00:20:54;;;;;;;14.00;6.07;;;3.70;70.30;;;;;;5070921;28;20048;-49
2024/01/28 00:23:21;;;;;;;9.48;5.60;;;3.80;70.30;;;;;;5071973;28;20140;-48
2024/01/28 00:25:47;;;;;;;14.30;5.72;;;3.70;70.30;;;;;;5068132;28;20457;-53
2024/01/28 00:28:16;;;;;;;9.77;5.38;;;3.70;70.20;;;;;;5070782;28;20060;-53
2024/01/28 00:30:44;;;;;;;10.27;5.43;;;3.70;70.30;;;;;;5063919;28;20037;-49
2024/01/28 00:33:11;;;;;;;9.63;5.88;;;3.70;70.20;;;;;;5069081;28;20037;-48
2024/01/28 00:35:38;;;;;;;9.55;5.10;;;3.70;70.30;;;;;;5069014;28;20044;-48
2024/01/28 00:38:04;;;;;;;6.68;4.53;;;3.70;70.20;;;;;;5069958;28;20050;-48
2024/01/28 00:40:33;;;;;;;8.10;4.60;;;3.70;70.20;;;;;;5068034;28;20071;-53
2024/01/28 00:43:02;;;;;;;15.70;5.00;;;3.70;70.30;;;;;;5068095;28;20088;-50
2024/01/28 00:45:32;;;;;;;7.85;4.78;;;3.60;70.20;;;;;;5071840;28;20512;-48
2024/01/28 00:48:02;;;;;;;5.68;4.45;;;3.60;70.30;;;;;;5068294;28;20041;-53
2024/01/28 00:50:32;;;;;;;10.38;4.65;;;3.60;70.30;;;;;;5071121;28;20136;-48
2024/01/28 00:52:58;;;;;;;9.95;4.70;;;3.60;70.30;;;;;;5070544;28;20051;-51
2024/01/28 00:55:28;;;;;;;11.23;5.15;;;3.60;70.30;;;;;;5068268;28;20116;-49
2024/01/28 00:57:58;;;;;;;7.45;5.22;;;3.50;70.20;;;;;;5065751;28;20075;-52
2024/01/28 01:00:33;;;;;;;8.40;5.05;;;3.50;70.20;;;;;;5060208;28;20044;-50
2024/01/28 01:03:03;;;;;;;8.15;4.75;;;3.50;70.20;;;;;;5066363;28;20455;-49
2024/01/28 01:05:34;;;;;;;10.82;5.68;;;3.50;70.20;;;;;;5071156;28;20047;-48
2024/01/28 01:08:08;;;;;;;9.48;4.88;;;3.50;70.20;;;;;;5070768;28;20513;-53
2024/01/28 01:10:35;;;;;;;6.32;4.80;;;3.50;70.30;;;;;;5069580;28;20115;-48
2024/01/28 01:13:06;;;;;;;11.20;4.50;;;3.40;70.20;;;;;;5068465;28;20497;-49
2024/01/28 01:15:38;;;;;;;9.52;4.97;;;3.40;70.30;;;;;;5068212;28;20070;-48
2024/01/28 01:18:07;;;;;;;10.68;4.70;;;3.40;70.30;;;;;;5064119;28;20053;-48
2024/01/28 01:20:36;;;;;;;10.55;4.93;;;3.40;70.30;;;;;;5069561;28;20131;-49
2024/01/28 01:23:03;;;;;;;7.05;4.75;;;3.40;70.30;;;;;;5070722;28;20048;-49
2024/01/28 01:25:31;;;;;;;11.88;5.13;;;3.40;70.30;;;;;;5070142;28;20055;-48
2024/01/28 01:27:58;;;;;;;8.95;4.97;;;3.30;70.20;;;;;;5068751;28;20123;-49
2024/01/28 01:30:34;;;;;;;10.25;4.57;;;3.30;70.20;;;;;;5061074;28;20044;-49
2024/01/28 01:33:01;;;;;;;7.82;4.80;;;3.30;70.20;;;;;;5068194;28;20049;-48
2024/01/28 01:35:29;;;;;;;7.28;4.60;;;3.30;70.30;;;;;;5068872;28;20120;-48
2024/01/28 01:37:58;;;;;;;6.90;4.60;;;3.30;70.20;;;;;;5070337;28;20437;-50
2024/01/28 01:40:25;;;;;;;10.13;4.90;;;3.30;70.20;;;;;;5066029;28;20044;-50
2024/01/28 01:42:54;;;;;;;9.23;4.80;;;3.30;70.20;;;;;;5065408;28;20445;-53
2024/01/28 01:45:21;;;;;;;10.43;3.90;;;3.30;70.20;;;;;;5064373;28;20375;-48
2024/01/28 01:47:50;;;;;;;10.32;4.57;;;3.20;70.20;;;;;;5067148;28;20042;-48
2024/01/28 01:50:20;;;;;;;10.48;4.50;;;3.20;70.30;;;;;;5070416;28;20070;-50
2024/01/28 01:52:53;;;;;;;12.32;4.78;;;3.20;70.20;;;;;;5067268;28;20543;-48
2024/01/28 01:55:21;;;;;;;7.10;4.13;;;3.20;70.80;;;;;;5067272;28;20091;-49
2024/01/28 01:57:53;;;;;;;8.70;4.25;;;3.20;70.90;;;;;;5067195;28;20037;-52
2024/01/28 02:00:22;;;;;;;5.90;3.92;;;3.20;70.20;;;;;;5063419;28;20053;-52
2024/01/28 02:02:49;;;;;;;10.15;5.43;;;3.20;70.30;;;;;;5065631;28;20425;-48
2024/01/28 02:05:20;;;;;;;9.10;4.60;;;3.20;70.30;;;;;;5070158;28;20133;-52
2024/01/28 02:07:50;;;;;;;10.48;4.85;;;3.20;70.30;;;;;;5069458;28;20044;-48
2024/01/28 02:10:17;;;;;;;11.07;4.57;;;3.20;70.40;;;;;;5069460;28;20406;-48
2024/01/28 02:12:45;;;;;;;7.32;4.13;;;3.10;70.40;;;;;;5069208;28;20526;-50
2024/01/28 02:15:19;;;;;;;6.75;4.72;;;3.10;70.30;;;;;;5069809;28;20086;-48
2024/01/28 02:17:55;;;;;;;9.80;4.80;;;3.10;70.30;;;;;;5066786;28;20203;-53
2024/01/28 02:20:22;;;;;;;9.68;4.05;;;3.10;70.30;;;;;;5063225;28;20058;-47
2024/01/28 02:22:49;;;;;;;10.27;4.78;;;3.10;70.40;;;;;;5064578;28;20152;-50
2024/01/28 02:25:16;;;;;;;10.88;4.85;;;3.10;70.40;;;;;;5069531;28;20053;-49
2024/01/28 02:27:45;;;;;;;5.78;4.53;;;3.10;70.40;;;;;;5066766;28;20036;-48
2024/01/28 02:30:13;;;;;;;9.30;4.50;;;3.10;70.40;;;;;;5065922;28;20040;-48
2024/01/28 02:32:51;;;;;;;9.80;4.30;;;3.10;70.30;;;;;;5064428;28;20427;-49
2024/01/28 02:35:18;;;;;;;11.57;5.18;;;3.00;70.10;;;;;;5064698;28;20047;-48
2024/01/28 02:37:47;;;;;;;7.15;4.55;;;3.00;70.20;;;;;;5064150;28;20510;-49
2024/01/28 02:40:14;;;;;;;9.13;4.00;;;3.00;70.20;;;;;;5064577;28;20040;-48
2024/01/28 02:42:41;;;;;;;5.82;3.90;;;3.00;70.30;;;;;;5068207;28;20056;-49
2024/01/28 02:45:10;;;;;;;9.20;3.60;;;3.00;70.30;;;;;;5069276;28;20121;-48
2024/01/28 02:47:37;;;;;;;7.22;4.00;;;3.00;70.40;;;;;;5067492;28;20136;-52
2024/01/28 02:50:05;;;;;;;5.75;3.63;;;3.00;70.40;;;;;;5067375;28;20039;-53
2024/01/28 02:52:37;;;;;;;8.88;4.65;;;3.00;70.40;;;;;;5068828;28;20040;-47
2024/01/28 02:55:11;;;;;;;7.68;4.10;;;3.00;70.50;;;;;;5068669;28;22118;-48
2024/01/28 02:57:38;;;;;;;9.30;3.60;;;3.00;70.50;;;;;;5067822;28;20061;-51
2024/01/28 03:00:06;;;;;;;7.88;3.83;;;3.00;70.40;;;;;;5067226;28;20044;-49
2024/01/28 03:02:39;;;;;;;13.40;5.80;;;3.00;70.40;;;;;;5064129;28;20055;-52
2024/01/28 03:05:09;;;;;;;7.88;4.50;;;3.00;70.40;;;;;;5068029;28;20052;-50
2024/01/28 03:07:37;;;;;;;10.65;4.05;;;2.90;70.40;;;;;;5069003;28;20094;-53
2024/01/28 03:10:05;;;;;;;7.40;4.07;;;2.90;70.30;;;;;;5067982;28;20459;-48
2024/01/28 03:12:32;;;;;;;9.23;4.28;;;2.90;70.30;;;;;;5067582;28;20126;-49
2024/01/28 03:14:58;;;;;;;9.95;4.38;;;2.90;70.40;;;;;;5054503;28;20080;-49
2024/01/28 03:17:30;;;;;;;6.53;3.75;;;2.90;70.40;;;;;;5068394;28;20127;-53
2024/01/28 03:19:59;;;;;;;8.13;4.20;;;2.90;70.50;;;;;;5068812;28;20067;-49
2024/01/28 03:22:25;;;;;;;8.18;4.53;;;2.90;70.40;;;;;;5059448;28;20402;-53
2024/01/28 03:24:57;;;;;;;10.80;4.47;;;2.90;70.40;;;;;;5065182;28;20116;-49
2024/01/28 03:27:24;;;;;;;6.43;3.92;;;2.90;70.40;;;;;;5060638;28;20128;-52
2024/01/28 03:29:53;;;;;;;8.93;3.83;;;2.90;70.40;;;;;;5066570;28;20036;-49
2024/01/28 03:32:22;;;;;;;6.28;3.67;;;2.90;70.30;;;;;;5065459;28;20571;-49
2024/01/28 03:34:49;;;;;;;8.10;4.10;;;2.80;70.20;;;;;;5064996;28;20060;-52
2024/01/28 03:37:16;;;;;;;8.57;3.55;;;2.90;70.30;;;;;;5068675;28;20044;-49
2024/01/28 03:39:43;;;;;;;9.63;5.00;;;2.80;70.20;;;;;;5069188;28;20044;-49
2024/01/28 03:42:10;;;;;;;8.15;4.25;;;2.80;70.20;;;;;;5068143;28;20159;-50
2024/01/28 03:44:37;;;;;;;6.03;3.20;;;2.80;70.20;;;;;;5068482;28;20045;-48
2024/01/28 03:47:04;;;;;;;6.05;3.45;;;2.80;70.80;;;;;;5068500;28;20124;-53
2024/01/28 03:49:30;;;;;;;6.70;3.97;;;2.80;70.20;;;;;;5068435;28;20041;-48
2024/01/28 03:52:00;;;;;;;5.50;3.40;;;2.70;70.10;;;;;;5063148;28;20521;-47
2024/01/28 03:54:31;;;;;;;;;;;2.70;70.20;;;;;;5069112;28;20063;-51
2024/01/28 03:56:58;;;;;;;12.38;4.00;;;2.80;70.30;;;;;;5071881;28;19943;-48
2024/01/28 03:59:25;;;;;;;7.57;4.68;;;2.70;70.00;;;;;;5067292;28;20530;-52
2024/01/28 04:01:58;;;;;;;12.55;4.72;;;2.70;70.60;;;;;;5067896;28;20430;-49
2024/01/28 04:04:24;;;;;;;7.57;3.90;;;2.60;69.90;;;;;;5061260;28;20040;-49
2024/01/28 04:06:51;;;;;;;8.63;4.90;;;2.70;70.00;;;;;;5072491;28;20045;-48
2024/01/28 04:09:18;;;;;;;8.80;4.65;;;2.60;70.00;;;;;;5068656;28;20406;-53
2024/01/28 04:11:48;;;;;;;8.93;4.95;;;2.60;70.00;;;;;;5062760;28;20038;-49
2024/01/28 04:14:17;;;;;;;7.45;4.40;;;2.60;70.10;;;;;;5069981;28;20056;-49
2024/01/28 04:16:43;;;;;;;11.27;4.85;;;2.60;70.10;;;;;;5071446;28;20056;-48
2024/01/28 04:19:13;;;;;;;9.27;4.55;;;2.60;70.20;;;;;;5065300;28;20055;-49
2024/01/28 04:21:40;;;;;;;13.85;5.75;;;2.60;70.20;;;;;;5066854;28;20111;-49
2024/01/28 04:24:08;;;;;;;11.27;5.13;;;2.50;70.10;;;;;;5064147;28;20065;-48
2024/01/28 04:26:37;;;;;;;13.48;5.28;;;2.50;70.10;;;;;;5071277;28;20513;-48
2024/01/28 04:29:09;;;;;;;6.68;4.90;;;2.50;70.10;;;;;;5067544;28;20064;-52
2024/01/28 04:31:43;;;;;;;7.85;4.00;;;2.50;70.10;;;;;;5067800;28;20044;-48
2024/01/28 04:34:10;;;;;;;9.50;4.78;;;2.50;70.10;;;;;;5061578;28;20574;-48
2024/01/28 04:36:45;;;;;;;10.50;4.63;;;2.50;70.10;;;;;;5072076;28;20044;-48
2024/01/28 04:39:15;;;;;;;5.80;3.92;;;2.50;70.10;;;;;;5070554;28;20041;-51
2024/01/28 04:41:42;;;;;;;8.05;3.92;;;2.50;70.10;;;;;;5064810;28;20654;-48
2024/01/28 04:44:08;;;;;;;6.75;4.60;;;2.40;70.00;;;;;;5053464;28;20072;-48
2024/01/28 04:46:36;;;;;;;8.65;4.90;;;2.40;70.00;;;;;;5063993;28;20094;-51
2024/01/28 04:49:03;;;;;;;10.75;4.50;;;2.40;70.00;;;;;;5070980;28;20571;-49
2024/01/28 04:51:37;;;;;;;8.60;5.47;;;2.40;70.00;;;;;;5076294;28;20067;-50
2024/01/28 04:54:09;;;;;;;7.10;3.88;;;2.40;70.00;;;;;;5068668;28;20045;-49
2024/01/28 04:56:38;;;;;;;6.63;5.03;;;2.40;70.00;;;;;;5066387;28;20461;-50
2024/01/28 04:59:10;;;;;;;7.20;4.50;;;2.40;70.00;;;;;;5065681;28;20075;-53
2024/01/28 05:01:41;;;;;;;13.77;6.13;;;2.30;70.00;;;;;;5065957;28;20040;-50
2024/01/28 05:04:15;;;;;;;10.63;5.00;;;2.30;70.00;;;;;;5061203;28;20072;-48
2024/01/28 05:06:44;;;;;;;7.22;4.07;;;2.30;70.60;;;;;;5071361;28;20047;-49
2024/01/28 05:09:12;;;;;;;11.55;5.40;;;2.30;70.00;;;;;;5069196;28;20422;-48
2024/01/28 05:11:41;;;;;;;8.65;4.55;;;2.30;70.00;;;;;;5060731;28;20114;-52
2024/01/28 05:14:11;;;;;;;5.65;4.05;;;2.30;70.00;;;;;;5068844;28;20051;-52
2024/01/28 05:16:37;;;;;;;10.30;5.32;;;2.30;70.00;;;;;;5069269;28;20086;-48
2024/01/28 05:19:06;;;;;;;6.32;4.30;;;2.30;70.10;;;;;;5067638;28;20047;-49
2024/01/28 05:21:35;;;;;;;5.07;3.72;;;2.30;70.10;;;;;;5069023;28;20521;-48
2024/01/28 05:24:06;;;;;;;7.72;3.88;;;2.30;70.00;;;;;;5070286;28;20044;-50
2024/01/28 05:26:36;;;;;;;8.20;4.55;;;2.30;70.00;;;;;;5062522;28;20041;-47
2024/01/28 05:29:05;;;;;;;7.22;4.13;;;2.30;70.00;;;;;;5068299;28;20120;-48
2024/01/28 05:31:32;;;;;;;6.45;5.03;;;2.20;70.00;;;;;;5101388;22;20044;-55
2024/01/28 05:34:02;;;;;;;7.82;5.13;;;2.20;70.00;;;;;;5094594;28;20070;-57
2024/01/28 05:36:29;;;;;;;7.15;4.20;;;2.20;70.40;;;;;;5108296;28;20048;-51
2024/01/28 05:38:57;;;;;;;6.28;3.90;;;2.20;70.00;;;;;;5108819;28;20491;-53
2024/01/28 05:41:26;;;;;;;9.23;5.00;;;2.20;70.60;;;;;;5086400;28;20051;-55
2024/01/28 05:43:58;;;;;;;8.88;4.55;;;2.20;70.00;;;;;;5083432;28;20078;-57
2024/01/28 05:46:29;;;;;;;8.27;5.20;;;2.20;70.00;;;;;;5081970;28;20610;-58
2024/01/28 05:48:58;;;;;;;9.18;5.32;;;2.20;70.00;;;;;;5083082;28;20107;-56
2024/01/28 05:51:27;;;;;;;8.57;4.47;;;2.20;70.00;;;;;;5083876;28;20397;-56
2024/01/28 05:53:57;;;;;;;10.95;4.70;;;2.20;69.90;;;;;;5082190;28;20071;-55
2024/01/28 05:56:26;;;;;;;6.95;4.22;;;2.20;69.90;;;;;;5080944;28;20078;-57
2024/01/28 05:58:53;;;;;;;7.53;4.25;;;2.10;69.90;;;;;;5080066;28;20127;-57
2024/01/28 06:01:19;;;;;;;8.15;4.80;;;2.40;70.00;;;;;;5087117;28;20840;-56
2024/01/28 06:03:50;;;;;;;7.30;4.10;;;2.10;69.90;;;;;;5082736;28;20044;-57
2024/01/28 06:06:22;;;;;;;7.63;4.32;;;2.10;69.90;;;;;;5089595;28;20441;-58
2024/01/28 06:08:48;;;;;;;;;;;2.10;69.90;;;;;;5090823;28;20061;-58
2024/01/28 06:11:15;;;;;;;6.47;4.13;;;2.20;69.90;;;;;;5087531;28;20335;-58
2024/01/28 06:13:42;;;;;;;7.97;4.53;;;2.10;69.70;;;;;;5079194;28;20139;-57
2024/01/28 06:16:08;;;;;;;7.20;4.10;;;2.10;69.70;;;;;;5079964;28;20028;-57
2024/01/28 06:18:43;;;;;;;14.32;5.03;;;2.10;69.70;;;;;;5078585;28;20040;-58
2024/01/28 06:21:13;;;;;;;8.88;4.10;;;2.20;69.80;;;;;;5082651;28;20044;-55
2024/01/28 06:23:45;;;;;;;8.55;3.95;;;2.10;69.80;;;;;;5086010;28;20055;-56
2024/01/28 06:26:21;;;;;;;7.13;4.35;;;2.10;69.70;;;;;;5082787;28;20110;-58
2024/01/28 06:28:49;;;;;;;8.98;4.38;;;2.00;69.70;;;;;;5080307;28;20071;-55
2024/01/28 06:31:18;;;;;;;7.80;4.90;;;2.00;69.80;;;;;;5085565;28;20044;-57
2024/01/28 06:33:44;;;;;;;11.05;4.88;;;2.00;69.80;;;;;;5083918;28;20155;-57
2024/01/28 06:36:21;;;;;;;6.55;4.53;;;2.10;69.90;;;;;;5089309;28;20086;-60
2024/01/28 06:38:49;;;;;;;9.45;4.72;;;2.00;69.90;;;;;;5088401;28;20417;-56
2024/01/28 06:41:16;;;;;;;9.95;4.60;;;2.00;69.90;;;;;;5088898;28;20040;-56
2024/01/28 06:43:45;;;;;;;9.57;4.40;;;2.00;70.50;;;;;;5080209;28;20075;-56
2024/01/28 06:46:19;;;;;;;12.77;4.63;;;2.00;69.90;;;;;;5088572;28;20122;-59
2024/01/28 06:48:48;;;;;;;11.60;5.25;;;2.00;69.90;;;;;;5082124;28;20078;-56
2024/01/28 06:51:15;;;;;;;10.32;4.80;;;2.00;69.80;;;;;;5078412;28;20441;-59
2024/01/28 06:53:44;;;;;;;8.57;5.13;;;2.00;69.90;;;;;;5090092;28;20044;-58
2024/01/28 06:56:26;;;;;;;13.10;4.53;;;2.00;70.00;;;;;;5080867;28;20048;-55
2024/01/28 06:58:57;;;;;;;11.63;5.15;;;2.00;70.00;;;;;;5081232;28;20044;-53
2024/01/28 07:01:27;;;;;;;9.73;5.88;;;2.00;70.00;;;;;;5080310;28;20047;-58
2024/01/28 07:03:56;;;;;;;7.32;4.95;;;1.90;70.00;;;;;;5080552;28;20056;-57
2024/01/28 07:06:25;;;;;;;9.25;5.00;;;1.90;70.00;;;;;;5082025;28;20052;-56
2024/01/28 07:08:54;;;;;;;11.32;4.82;;;1.90;70.00;;;;;;5089378;28;20170;-55
2024/01/28 07:11:25;;;;;;;11.68;5.22;;;1.90;70.10;;;;;;5076939;28;20083;-55
2024/01/28 07:13:51;;;;;;;13.65;4.90;;;2.00;70.20;;;;;;5078682;28;20064;-54
2024/01/28 07:16:22;;;;;;;9.35;6.35;;;2.00;70.20;;;;;;5086572;28;20557;-55
2024/01/28 07:18:52;;;;;;;11.07;4.63;;;2.00;70.30;;;;;;5080909;28;20068;-58
2024/01/28 07:21:22;;;;;;;9.82;4.80;;;2.00;70.40;;;;;;5085766;28;20039;-58
2024/01/28 07:23:51;;;;;;;;;;;2.00;70.40;;;;;;5088880;28;20039;-57
2024/01/28 07:26:21;;;;;;;7.90;4.18;;;2.00;70.70;;;;;;5087956;28;19969;-56
2024/01/28 07:28:51;;;;;;;5.78;4.50;;;2.00;70.30;;;;;;5084297;28;20068;-55
2024/01/28 07:31:20;;;;;;;7.68;4.10;;;2.00;70.40;;;;;;5079027;28;20052;-54
2024/01/28 07:33:49;;;;;;;9.23;5.05;;;2.00;70.60;;;;;;5077327;28;20044;-55
2024/01/28 07:36:21;;;;;;;9.20;4.25;;;2.10;70.90;;;;;;5081705;28;20135;-53
2024/01/28 07:38:50;;;;;;;8.45;4.40;;;2.10;71.10;;;;;;5099364;28;20418;-52
2024/01/28 07:41:17;;;;;;;9.63;4.65;;;2.10;71.30;;;;;;5090659;28;20135;-54
2024/01/28 07:43:46;;;;;;;12.82;4.97;;;2.10;71.60;;;;;;5084297;28;20119;-56
2024/01/28 07:46:15;;;;;;;13.48;5.38;;;2.10;72.30;;;;;;5085890;28;20044;-56
2024/01/28 07:48:49;;;;;;;9.50;5.95;;;2.40;72.10;;;;;;5082743;28;20032;-54
2024/01/28 07:51:16;;;;;;;9.68;4.85;;;2.20;72.10;;;;;;5081607;28;20044;-53
2024/01/28 07:53:43;;;;;;;10.38;4.97;;;2.30;72.10;;;;;;5094456;28;20081;-54
2024/01/28 07:56:16;;;;;;;12.52;4.70;;;2.30;72.10;;;;;;5076235;28;20060;-56
2024/01/28 07:58:42;;;;;;;10.13;4.57;;;2.40;72.20;;;;;;5088266;28;20047;-54
2024/01/28 08:01:09;;;;;;;9.65;4.72;;;2.40;72.20;;;;;;5090194;28;20101;-55
2024/01/28 08:03:36;;;;;;;11.60;4.70;;;2.40;72.30;;;;;;5083613;28;20071;-55
2024/01/28 08:06:04;;;;;;;10.32;4.75;;;2.50;72.40;;;;;;5088220;28;20058;-54
2024/01/28 08:08:32;;;;;;;8.68;4.63;;;2.50;72.20;;;;;;5085085;28;20083;-55
2024/01/28 08:11:02;;;;;;;7.57;4.20;;;2.50;72.20;;;;;;5086133;28;20040;-56
2024/01/28 08:13:29;;;;;;;13.25;5.25;;;2.60;72.80;;;;;;5092800;28;20055;-55
2024/01/28 08:16:01;;;;;;;9.63;4.75;;;2.60;72.20;;;;;;5090325;28;20169;-55
2024/01/28 08:18:28;;;;;;;10.70;5.00;;;2.60;72.40;;;;;;5081837;28;20459;-55
2024/01/28 08:20:56;;;;;;;12.10;6.53;;;2.70;72.60;;;;;;5090795;28;20720;-55
2024/01/28 08:23:22;;;;;;;13.82;6.22;;;2.70;72.70;;;;;;5083777;28;20043;-58
2024/01/28 08:25:51;;;;;;;12.02;7.00;;;2.80;72.70;;;;;;5084700;28;20048;-56
2024/01/28 08:28:18;;;;;;;10.18;6.40;;;2.80;73.30;;;;;;5089552;28;20036;-52
2024/01/28 08:30:46;;;;;;;9.73;5.70;;;2.80;72.60;;;;;;5091190;28;20064;-55
2024/01/28 08:33:12;;;;;;;11.85;6.30;;;2.90;72.70;;;;;;5083570;28;20101;-56
2024/01/28 08:35:39;;;;;;;12.57;5.97;;;2.90;72.70;;;;;;5085952;28;20401;-55
2024/01/28 08:38:08;;;;;;;7.57;5.20;;;2.90;72.80;;;;;;5083039;28;20122;-53
2024/01/28 08:40:35;;;;;;;8.07;5.57;;;3.00;72.90;;;;;;5086694;28;20048;-55
2024/01/28 08:43:04;;;;;;;9.65;5.63;;;3.00;72.90;;;;;;5106235;28;20098;-55
2024/01/28 08:45:36;;;;;;;13.65;6.38;;;3.00;73.00;;;;;;5091648;28;20032;-55
2024/01/28 08:48:05;;;;;;;9.52;6.03;;;3.10;73.20;;;;;;5086611;28;20047;-54
2024/01/28 08:50:32;;;;;;;8.98;5.82;;;3.10;73.10;;;;;;5081891;28;20121;-55
2024/01/28 08:52:59;;;;;;;11.80;6.70;;;3.20;73.20;;;;;;5080987;28;20036;-54
2024/01/28 08:55:26;;;;;;;11.15;6.88;;;3.20;73.20;;;;;;5088506;28;20398;-58
2024/01/28 08:57:53;;;;;;;9.65;5.22;;;3.30;73.30;;;;;;5086875;28;20131;-52
2024/01/28 09:00:20;;;;;;;9.75;4.88;;;3.30;73.30;;;;;;5090705;28;20040;-56
2024/01/28 09:02:47;;;;;;;8.20;5.45;;;3.30;73.40;;;;;;5080136;28;20052;-55
2024/01/28 09:05:13;;;;;;;8.52;5.28;;;3.40;73.50;;;;;;5088653;28;20121;-57
2024/01/28 09:07:41;;;;;;;8.02;5.63;;;3.40;73.60;;;;;;5088013;28;20124;-55
2024/01/28 09:10:09;;;;;;;9.65;5.20;;;3.50;73.70;;;;;;5091284;28;20036;-54
2024/01/28 09:12:35;;;;;;;11.32;5.82;;;3.50;73.70;;;;;;5080959;28;20127;-55
2024/01/28 09:15:02;;;;;;;9.70;5.00;;;3.50;73.80;;;;;;5085776;28;20036;-55
2024/01/28 09:17:29;;;;;;;11.18;5.97;;;3.60;74.00;;;;;;5084986;28;20081;-55
2024/01/28 09:19:56;;;;;;;15.07;5.45;;;3.60;74.00;;;;;;5090495;28;20050;-52
2024/01/28 09:22:25;;;;;;;11.88;6.03;;;3.70;74.10;;;;;;5087345;28;20043;-52
2024/01/28 09:24:52;;;;;;;9.32;4.68;;;3.80;74.10;;;;;;5090017;28;20070;-55
2024/01/28 09:27:22;;;;;;;8.27;5.25;;;3.80;74.20;;;;;;5086870;28;20545;-55
2024/01/28 09:29:50;;;;;;;9.63;4.97;;;3.90;74.10;;;;;;5091394;28;20039;-57
2024/01/28 09:32:18;;;;;;;7.82;5.18;;;4.00;74.10;;;;;;5086108;28;20072;-57
2024/01/28 09:34:47;;;;;;;11.93;4.68;;;4.00;74.00;;;;;;5087873;28;20498;-57
2024/01/28 09:37:14;;;;;;;8.20;4.40;;;4.10;74.00;;;;;;5091607;28;20065;-56
2024/01/28 09:39:40;;;;;;;8.70;5.50;;;4.10;73.90;;;;;;5088981;28;20067;-57
2024/01/28 09:42:28;;;;;;;9.68;5.38;;;4.20;73.90;;;;;;5084831;28;20040;-53
2024/01/28 09:44:58;;;;;;;7.50;3.95;;;4.20;73.90;;;;;;5100526;28;20045;-57
2024/01/28 09:47:25;;;;;;;6.72;4.78;;;4.30;73.90;;;;;;5083458;28;20463;-58
2024/01/28 09:49:54;;;;;;;8.52;4.45;;;4.30;73.80;;;;;;5082837;28;20092;-58
2024/01/28 09:52:21;;;;;;;6.72;4.85;;;4.40;73.90;;;;;;5087138;28;20078;-56
2024/01/28 09:54:48;;;;;;;8.23;5.18;;;4.40;73.80;;;;;;5087456;28;20719;-58
2024/01/28 09:57:15;;;;;;;9.00;4.80;;;4.50;73.80;;;;;;5075759;28;20044;-57
2024/01/28 09:59:43;;;;;;;8.32;4.70;;;4.50;73.80;;;;;;5079339;28;20425;-58
2024/01/28 10:02:12;;;;;;;10.57;5.45;;;4.50;73.70;;;;;;5087241;28;20119;-57
2024/01/28 10:04:40;;;;;;;9.90;4.80;;;4.60;73.80;;;;;;5084123;28;20450;-59
2024/01/28 10:07:09;;;;;;;8.23;4.72;;;4.70;73.90;;;;;;5088956;28;20058;-59
2024/01/28 10:09:37;;;;;;;6.57;4.35;;;4.70;73.80;;;;;;5086553;28;20059;-57
2024/01/28 10:12:04;;;;;;;9.35;5.50;;;4.80;73.90;;;;;;5083060;28;20379;-59
2024/01/28 10:14:31;;;;;;;9.60;4.85;;;4.80;73.80;;;;;;5090623;28;20044;-59
2024/01/28 10:16:57;;;;;;;11.27;5.70;;;4.90;73.70;;;;;;5087518;28;20032;-59
2024/01/28 10:19:25;;;;;;;11.75;5.95;;;5.00;73.60;;;;;;5081096;28;20582;-58
2024/01/28 10:21:52;;;;;;;8.32;4.78;;;5.00;73.50;;;;;;5085021;28;20490;-59
2024/01/28 10:24:19;;;;;;;7.55;5.15;;;5.10;73.40;;;;;;5086945;28;20500;-56
2024/01/28 10:26:47;;;;;;;6.95;5.35;;;5.10;73.30;;;;;;5086354;28;20036;-57
2024/01/28 10:29:14;;;;;;;11.05;5.53;;;5.20;73.30;;;;;;5089585;28;20036;-60
2024/01/28 10:31:44;;;;;;;11.00;5.32;;;5.20;73.80;;;;;;5080207;28;20070;-57
2024/01/28 10:34:11;;;;;;;10.77;4.85;;;5.30;73.20;;;;;;5085482;28;20503;-57
2024/01/28 10:36:39;;;;;;;8.40;4.97;;;5.30;73.20;;;;;;5084617;28;20051;-56
2024/01/28 10:39:10;;;;;;;6.68;4.43;;;5.40;73.20;;;;;;5088535;28;20040;-59
2024/01/28 10:41:44;;;;;;;8.25;5.18;;;5.40;73.10;;;;;;5086936;28;20055;-58
2024/01/28 10:44:12;;;;;;;9.65;5.65;;;5.50;73.50;;;;;;5087363;28;20505;-59
2024/01/28 10:46:41;;;;;;;9.27;5.75;;;5.60;72.70;;;;;;5085968;28;20078;-60
2024/01/28 10:49:12;;;;;;;7.45;5.47;;;5.60;72.60;;;;;;5084364;28;20068;-57
2024/01/28 10:51:40;;;;;;;6.85;5.07;;;5.70;72.60;;;;;;5089356;28;20044;-59
2024/01/28 10:54:08;;;;;;;8.43;4.88;;;5.70;72.60;;;;;;5089752;28;20127;-58
2024/01/28 10:56:40;;;;;;;5.22;4.32;;;5.80;72.60;;;;;;5089431;28;20040;-58
2024/01/28 10:59:09;;;;;;;;;;;5.90;72.40;;;;;;5086374;28;20052;-59
2024/01/28 11:01:37;;;;;;;7.18;4.68;;;6.00;72.40;;;;;;5084811;28;20343;-58
2024/01/28 11:04:05;;;;;;;9.65;4.78;;;6.00;72.10;;;;;;5083973;28;20448;-59
2024/01/28 11:06:33;;;;;;;9.70;4.45;;;6.10;72.00;;;;;;5076725;28;20455;-58
2024/01/28 11:09:00;;;;;;;9.45;5.38;;;6.10;71.90;;;;;;5081518;28;20060;-58
2024/01/28 11:11:27;;;;;;;7.85;4.95;;;6.20;71.90;;;;;;5082832;28;20610;-59
2024/01/28 11:13:55;;;;;;;9.73;5.60;;;6.20;71.90;;;;;;5080602;28;20040;-59
2024/01/28 11:16:22;;;;;;;10.50;4.57;;;6.30;71.80;;;;;;5078811;28;20032;-59
2024/01/28 11:19:04;;;;;;;11.07;4.97;;;6.40;71.70;;;;;;5096804;28;20475;-59
2024/01/28 11:21:33;;;;;;;5.40;4.80;;;6.40;71.40;;;;;;5073796;28;20048;-59
2024/01/28 11:24:06;;;;;;;8.60;4.80;;;6.50;71.40;;;;;;5081703;28;20048;-60
2024/01/28 11:26:37;;;;;;;8.50;5.05;;;6.50;71.20;;;;;;5084278;28;20511;-59
2024/01/28 11:29:12;;;;;;;10.65;4.80;;;6.60;71.10;;;;;;5086676;28;20417;-59
2024/01/28 11:31:40;;;;;;;8.43;5.60;;;6.60;71.00;;;;;;5082066;28;20068;-59
2024/01/28 11:34:20;;;;;;;7.45;4.78;;;6.70;71.10;;;;;;5082035;28;20041;-59
2024/01/28 11:36:51;;;;;;;11.98;5.55;;;6.80;70.90;;;;;;5081474;28;20124;-60
2024/01/28 11:39:42;;;;;;;9.30;5.00;;;6.80;71.10;;;;;;5084073;28;20044;-59
2024/01/28 11:42:09;;;;;;;8.35;5.32;;;6.90;70.80;;;;;;5078753;28;20044;-59
2024/01/28 11:44:37;;;;;;;8.80;4.95;;;6.90;70.90;;;;;;5079266;28;20055;-60
2024/01/28 11:47:16;;;;;;;7.60;5.13;;;7.00;70.90;;;;;;5084749;28;20044;-59
2024/01/28 11:49:43;;;;;;;7.85;4.78;;;7.00;70.80;;;;;;5079925;28;20032;-61
2024/01/28 11:52:11;;;;;;;12.38;5.93;;;7.10;70.80;;;;;;5082874;28;20600;-60
2024/01/28 11:54:38;;;;;;;7.57;4.85;;;7.10;70.60;;;;;;5083242;28;20061;-60
2024/01/28 11:57:05;;;;;;;11.77;5.43;;;7.20;70.50;;;;;;5085675;28;20094;-59
2024/01/28 11:59:33;;;;;;;7.82;4.97;;;7.20;70.40;;;;;;5085595;28;20040;-59
2024/01/28 12:02:01;;;;;;;8.23;4.93;;;7.30;70.30;;;;;;5080692;28;20040;-59
2024/01/28 12:04:28;;;;;;;6.88;4.65;;;7.40;70.20;;;;;;5071999;28;20051;-59
2024/01/28 12:06:55;;;;;;;7.32;4.68;;;7.40;70.10;;;;;;5068744;28;20049;-60
2024/01/28 12:09:22;;;;;;;8.48;4.55;;;7.50;70.00;;;;;;5072643;28;20036;-58
2024/01/28 12:11:50;;;;;;;8.55;4.38;;;7.60;69.90;;;;;;5082412;28;20044;-60
2024/01/28 12:14:20;;;;;;;9.68;4.65;;;7.60;69.70;;;;;;5072961;28;20036;-59
2024/01/28 12:16:47;;;;;;;9.25;4.90;;;7.70;69.60;;;;;;5075842;28;20115;-60
2024/01/28 12:19:13;;;;;;;9.60;5.20;;;7.80;69.60;;;;;;5086101;28;20055;-59
2024/01/28 12:21:42;;;;;;;8.55;4.55;;;7.80;69.50;;;;;;5084404;28;20533;-60
2024/01/28 12:24:09;;;;;;;9.15;6.05;;;7.90;69.40;;;;;;5081897;28;20042;-59
2024/01/28 12:26:36;;;;;;;11.20;5.07;;;7.90;69.30;;;;;;5078796;28;20487;-60
2024/01/28 12:29:03;;;;;;;14.93;5.13;;;8.00;69.30;;;;;;5090711;28;20467;-59
2024/01/28 12:31:33;;;;;;;6.22;4.90;;;8.10;69.20;;;;;;5080692;28;20040;-60
2024/01/28 12:33:59;;;;;;;7.43;4.72;;;8.10;69.00;;;;;;5085544;28;20064;-59
2024/01/28 12:36:26;;;;;;;9.15;5.07;;;8.20;69.00;;;;;;5085681;28;20681;-60
2024/01/28 12:38:53;;;;;;;7.10;4.68;;;8.30;68.90;;;;;;5079786;28;20047;-60
2024/01/28 12:41:22;;;;;;;9.80;4.82;;;8.30;68.80;;;;;;5071481;28;20147;-59
2024/01/28 12:43:53;;;;;;;7.93;4.20;;;8.40;68.70;;;;;;5074480;28;20479;-60
2024/01/28 12:46:20;;;;;;;9.55;4.25;;;8.40;68.50;;;;;;5089733;28;20410;-59
2024/01/28 12:48:47;;;;;;;8.13;4.25;;;8.50;68.30;;;;;;5088494;28;20050;-59
2024/01/28 12:51:14;;;;;;;7.65;4.10;;;8.60;68.30;;;;;;5081463;28;20094;-60
2024/01/28 12:53:41;;;;;;;5.90;3.70;;;8.60;68.30;;;;;;5085846;28;20047;-59
2024/01/28 12:56:08;;;;;;;10.55;4.78;;;8.60;68.10;;;;;;5086709;28;20066;-60
2024/01/28 12:58:35;;;;;;;5.65;3.88;;;8.70;68.00;;;;;;5088696;28;20039;-58
2024/01/28 13:01:03;;;;;;;6.40;4.30;;;8.80;67.80;;;;;;5086725;28;20055;-59
2024/01/28 13:03:31;;;;;;;6.53;4.28;;;8.80;67.70;;;;;;5084322;28;20040;-60